MT0047 weather

Brigadeiro Eduardo Gomes Airport
Nova Mutum, Mato Grosso, Brazil

Public forecast

Using degrees Celsius for public forecast. Weather courtesy of forecast.io.

Closest aviation weather report (METAR) to Brigadeiro Eduardo Gomes Airport

Closest report is Marechal Rondon Airport, 110.1 nm (203.9 km) S. Retrieved 2020/06/06 03:00 UTC (56 minutes ago):

SBCY 060300Z 17009KT CAVOK 24/21 Q1019

Closest aviation forecast (TAF) to Brigadeiro Eduardo Gomes Airport

Closest forecast is Marechal Rondon Airport, 110.1 nm (203.9 km) S. Retrieved 2020-06-06 00:00 UTC (4 hours ago):

TAF SBCY 052100Z 0600/0624 34003KT 9999 FEW020 TN22/0608Z TX35/0618Z RMK PDZ